createdAt,value
2018-06-08T00:00:29.357Z,20.15
2018-06-08T00:01:29.084Z,20.12
2018-06-08T00:02:29.072Z,20.18
2018-06-08T00:03:29.595Z,20.1
2018-06-08T00:04:29.055Z,20.12
2018-06-08T00:05:29.312Z,20.18
2018-06-08T00:06:29.566Z,20.15
2018-06-08T00:07:29.553Z,20.13
2018-06-08T00:08:29.550Z,20.13
2018-06-08T00:09:29.271Z,20.1
2018-06-08T00:10:29.524Z,20.13
2018-06-08T00:11:28.988Z,20.15
2018-06-08T00:12:29.509Z,20.09
2018-06-08T00:13:29.517Z,20.18
2018-06-08T00:14:29.483Z,20.13
2018-06-08T00:15:29.475Z,20.12
2018-06-08T00:16:28.937Z,20.18
2018-06-08T00:17:29.439Z,20.15
2018-06-08T00:18:29.444Z,20.16
2018-06-08T00:19:29.228Z,20.13
2018-06-08T00:20:28.898Z,20.16
2018-06-08T00:21:29.160Z,20.16
2018-06-08T00:22:29.149Z,20.18
2018-06-08T00:23:29.135Z,20.16
2018-06-08T00:24:29.120Z,20.12
2018-06-08T00:25:29.124Z,20.21
2018-06-08T00:26:29.364Z,20.09
2018-06-08T00:27:29.095Z,20.09
2018-06-08T00:28:29.344Z,20.13
2018-06-08T00:29:29.078Z,20.15
2018-06-08T00:30:29.068Z,20.15
2018-06-08T00:31:28.788Z,20.13
2018-06-08T00:32:29.304Z,20.12
2018-06-08T00:33:29.034Z,20.13
2018-06-08T00:34:29.296Z,20.16
2018-06-08T00:35:28.755Z,20.18
2018-06-08T00:36:29.008Z,20.1
2018-06-08T00:37:28.993Z,20.12
2018-06-08T00:38:28.985Z,20.06
2018-06-08T00:39:28.980Z,20.13
2018-06-08T00:40:28.967Z,20.09
2018-06-08T00:41:29.228Z,20.13
2018-06-08T00:42:28.943Z,20.06
2018-06-08T00:43:28.936Z,20.06
2018-06-08T00:44:29.194Z,20.08
2018-06-08T00:45:28.924Z,20.09
2018-06-08T00:46:28.911Z,20.12
2018-06-08T00:47:29.160Z,20.12
2018-06-08T00:48:29.354Z,20.1
2018-06-08T00:49:28.883Z,20.09
2018-06-08T00:50:28.868Z,20.06
2018-06-08T00:51:29.130Z,20.08
2018-06-08T00:52:29.114Z,20.09
2018-06-08T00:53:28.844Z,20.08
2018-06-08T00:54:29.143Z,20.12
2018-06-08T00:55:28.824Z,20.06
2018-06-08T00:56:28.807Z,20.08
2018-06-08T00:57:28.802Z,19.98
2018-06-08T00:58:29.060Z,20.05
2018-06-08T00:59:28.525Z,20.09
2018-06-08T01:00:28.773Z,20.03
2018-06-08T01:01:29.034Z,19.97
2018-06-08T01:02:29.020Z,20.05
2018-06-08T01:03:28.488Z,20.03
2018-06-08T01:04:29.003Z,19.95
2018-06-08T01:05:28.726Z,19.98
2018-06-08T01:06:28.713Z,19.97
2018-06-08T01:07:28.977Z,19.91
2018-06-08T01:08:28.693Z,19.98
2018-06-08T01:09:28.689Z,19.95
2018-06-08T01:10:28.416Z,19.97
2018-06-08T01:11:28.400Z,19.98
2018-06-08T01:12:28.920Z,19.97
2018-06-08T01:13:28.906Z,20.02
2018-06-08T01:14:28.633Z,19.98
2018-06-08T01:15:28.902Z,20
2018-06-08T01:16:28.617Z,19.95
2018-06-08T01:17:28.612Z,20
2018-06-08T01:18:28.596Z,19.98
2018-06-08T01:19:28.850Z,20.02
2018-06-08T01:20:28.847Z,19.98
2018-06-08T01:21:28.618Z,20
2018-06-08T01:22:28.821Z,20.02
2018-06-08T01:23:28.550Z,19.94
2018-06-08T01:24:28.807Z,19.98
2018-06-08T01:25:28.796Z,19.95
2018-06-08T01:26:28.516Z,20
2018-06-08T01:27:28.780Z,19.95
2018-06-08T01:28:28.762Z,20
2018-06-08T01:29:28.231Z,19.97
2018-06-08T01:30:28.752Z,19.97
2018-06-08T01:31:28.735Z,19.98
2018-06-08T01:32:28.736Z,19.98
2018-06-08T01:33:28.468Z,20
2018-06-08T01:34:28.706Z,19.95
2018-06-08T01:35:28.697Z,19.94
2018-06-08T01:36:28.419Z,20
2018-06-08T01:37:28.153Z,20
2018-06-08T01:38:28.671Z,19.95
2018-06-08T01:39:28.128Z,20
2018-06-08T01:40:28.381Z,19.95
2018-06-08T01:41:28.385Z,19.95
2018-06-08T01:42:28.365Z,19.91
2018-06-08T01:43:28.101Z,20.02
2018-06-08T01:44:28.612Z,19.97
2018-06-08T01:45:29.363Z,19.95
2018-06-08T01:46:28.605Z,19.94
2018-06-08T01:47:28.317Z,19.95
2018-06-08T01:48:28.308Z,19.94
2018-06-08T01:49:28.562Z,19.93
2018-06-08T01:50:28.285Z,19.94
2018-06-08T01:51:28.275Z,19.93
2018-06-08T01:52:28.264Z,19.95
2018-06-08T01:53:28.517Z,19.93
2018-06-08T01:54:28.511Z,19.9
2018-06-08T01:55:28.501Z,19.87
2018-06-08T01:56:27.971Z,19.91
2018-06-08T01:57:27.957Z,19.97
2018-06-08T01:58:28.484Z,19.91
2018-06-08T01:59:27.937Z,19.94
2018-06-08T02:00:28.452Z,19.88
2018-06-08T02:01:28.175Z,19.88
2018-06-08T02:02:28.437Z,19.91
2018-06-08T02:03:28.166Z,19.87
2018-06-08T02:04:28.418Z,19.9
2018-06-08T02:05:28.403Z,19.88
2018-06-08T02:06:28.396Z,19.87
2018-06-08T02:07:28.117Z,19.84
2018-06-08T02:08:28.112Z,19.88
2018-06-08T02:09:28.366Z,19.83
2018-06-08T02:10:28.359Z,19.83
2018-06-08T02:11:28.080Z,19.78
2018-06-08T02:12:28.072Z,19.79
2018-06-08T02:13:27.801Z,19.86
2018-06-08T02:14:28.050Z,19.8
2018-06-08T02:15:27.778Z,19.78
2018-06-08T02:16:28.292Z,19.75
2018-06-08T02:17:28.288Z,19.78
2018-06-08T02:18:28.011Z,19.8
2018-06-08T02:19:28.000Z,19.8
2018-06-08T02:20:28.258Z,19.83
2018-06-08T02:21:28.246Z,19.79
2018-06-08T02:22:27.973Z,19.83
2018-06-08T02:23:28.228Z,19.76
2018-06-08T02:24:27.948Z,19.73
2018-06-08T02:25:27.679Z,19.69
2018-06-08T02:26:27.940Z,19.72
2018-06-08T02:27:28.190Z,19.72
2018-06-08T02:28:27.919Z,19.65
2018-06-08T02:29:27.640Z,19.65
2018-06-08T02:30:27.630Z,19.69
2018-06-08T02:31:28.150Z,19.75
2018-06-08T02:32:28.138Z,19.65
2018-06-08T02:33:28.129Z,19.69
2018-06-08T02:34:27.851Z,19.65
2018-06-08T02:35:27.849Z,19.6
2018-06-08T02:36:27.836Z,19.57
2018-06-08T02:37:27.825Z,19.63
2018-06-08T02:38:27.554Z,19.63
2018-06-08T02:39:28.070Z,19.7
2018-06-08T02:40:27.798Z,19.58
2018-06-08T02:41:27.518Z,19.6
2018-06-08T02:42:28.040Z,19.61
2018-06-08T02:43:27.823Z,19.58
2018-06-08T02:44:28.043Z,19.58
2018-06-08T02:45:27.752Z,19.58
2018-06-08T02:46:28.010Z,19.63
2018-06-08T02:47:27.990Z,19.54
2018-06-08T02:48:27.916Z,19.54
2018-06-08T02:49:27.707Z,19.57
2018-06-08T02:50:27.956Z,19.57
2018-06-08T02:51:27.685Z,19.58
2018-06-08T02:52:27.417Z,19.58
2018-06-08T02:53:27.664Z,19.58
2018-06-08T02:54:27.395Z,19.57
2018-06-08T02:55:27.387Z,19.58
2018-06-08T02:56:27.897Z,19.42
2018-06-08T02:57:27.889Z,19.5
2018-06-08T02:58:27.902Z,19.54
2018-06-08T02:59:27.603Z,19.51
2018-06-08T03:00:27.882Z,19.48
2018-06-08T03:01:27.602Z,19.58
2018-06-08T03:02:27.848Z,19.54
2018-06-08T03:03:27.838Z,19.57
2018-06-08T03:04:27.582Z,19.57
2018-06-08T03:05:27.606Z,19.57
2018-06-08T03:06:27.545Z,19.54
2018-06-08T03:07:27.540Z,19.57
2018-06-08T03:08:27.795Z,19.54
2018-06-08T03:09:27.515Z,19.51
2018-06-08T03:10:27.240Z,19.55
2018-06-08T03:11:27.756Z,19.51
2018-06-08T03:12:27.744Z,19.54
2018-06-08T03:13:27.201Z,19.53
2018-06-08T03:14:27.191Z,19.53
2018-06-08T03:15:27.448Z,19.5
2018-06-08T03:16:27.434Z,19.57
2018-06-08T03:17:27.688Z,19.55
2018-06-08T03:18:27.154Z,19.54
2018-06-08T03:19:27.413Z,19.51
2018-06-08T03:20:27.410Z,19.55
2018-06-08T03:21:27.391Z,19.48
2018-06-08T03:22:27.379Z,19.57
2018-06-08T03:23:27.641Z,19.54
2018-06-08T03:24:27.364Z,19.55
2018-06-08T03:25:27.612Z,19.55
2018-06-08T03:26:27.609Z,19.51
2018-06-08T03:27:27.326Z,19.57
2018-06-08T03:28:27.315Z,19.54
2018-06-08T03:29:27.056Z,19.51
2018-06-08T03:30:27.312Z,19.48
2018-06-08T03:31:27.318Z,19.55
2018-06-08T03:32:27.554Z,19.51
2018-06-08T03:33:27.548Z,19.5
2018-06-08T03:34:27.258Z,19.54
2018-06-08T03:35:27.257Z,19.54
2018-06-08T03:36:27.244Z,19.53
2018-06-08T03:37:26.964Z,19.55
2018-06-08T03:38:27.490Z,19.57
2018-06-08T03:39:27.206Z,19.57
2018-06-08T03:40:27.201Z,19.43
2018-06-08T03:41:27.450Z,19.47
2018-06-08T03:42:27.448Z,19.4
2018-06-08T03:43:27.439Z,19.43
2018-06-08T03:44:27.155Z,19.4
2018-06-08T03:45:26.888Z,19.43
2018-06-08T03:46:27.411Z,19.5
2018-06-08T03:47:26.865Z,19.5
2018-06-08T03:48:27.385Z,19.43
2018-06-08T03:49:27.108Z,19.46
2018-06-08T03:50:27.363Z,19.4
2018-06-08T03:51:27.090Z,19.43
2018-06-08T03:52:27.351Z,19.46
2018-06-08T03:53:27.331Z,19.4
2018-06-08T03:54:27.057Z,19.46
2018-06-08T03:55:27.326Z,19.48
2018-06-08T03:56:27.049Z,19.54
2018-06-08T03:57:27.289Z,19.5
2018-06-08T03:58:27.019Z,19.54
2018-06-08T03:59:27.279Z,19.42
2018-06-08T04:00:27.263Z,19.54
2018-06-08T04:01:27.252Z,19.54
2018-06-08T04:02:27.037Z,19.51
2018-06-08T04:03:27.242Z,19.54
2018-06-08T04:04:26.957Z,19.53
2018-06-08T04:05:26.950Z,19.54
2018-06-08T04:06:26.938Z,19.5
2018-06-08T04:07:27.193Z,19.61
2018-06-08T04:08:26.925Z,19.57
2018-06-08T04:09:26.908Z,19.65
2018-06-08T04:10:26.904Z,19.57
2018-06-08T04:11:27.149Z,19.61
2018-06-08T04:12:26.879Z,19.63
2018-06-08T04:13:26.868Z,19.63
2018-06-08T04:14:27.120Z,19.63
2018-06-08T04:15:26.588Z,19.63
2018-06-08T04:16:27.107Z,19.65
2018-06-08T04:17:26.826Z,19.66
2018-06-08T04:18:26.554Z,19.73
2018-06-08T04:19:27.094Z,19.76
2018-06-08T04:20:27.062Z,19.79
2018-06-08T04:21:26.796Z,19.69
2018-06-08T04:22:27.041Z,19.69
2018-06-08T04:23:26.771Z,19.7
2018-06-08T04:24:27.022Z,19.72
2018-06-08T04:25:27.010Z,19.72
2018-06-08T04:26:26.744Z,19.72
2018-06-08T04:27:26.996Z,19.78
2018-06-08T04:28:26.458Z,19.78
2018-06-08T04:29:26.722Z,19.78
2018-06-08T04:30:26.964Z,19.73
2018-06-08T04:31:26.993Z,19.72
2018-06-08T04:32:26.692Z,19.8
2018-06-08T04:33:26.936Z,19.8
2018-06-08T04:34:26.930Z,19.83
2018-06-08T04:35:26.389Z,19.75
2018-06-08T04:36:26.657Z,19.86
2018-06-08T04:37:26.902Z,19.79
2018-06-08T04:38:26.901Z,19.78
2018-06-08T04:39:26.609Z,19.86
2018-06-08T04:40:26.664Z,19.84
2018-06-08T04:41:26.593Z,19.84
2018-06-08T04:42:26.846Z,19.86
2018-06-08T04:43:26.836Z,19.8
2018-06-08T04:44:26.583Z,19.83
2018-06-08T04:45:26.295Z,19.86
2018-06-08T04:46:26.544Z,19.86
2018-06-08T04:47:26.534Z,19.87
2018-06-08T04:48:26.736Z,19.84
2018-06-08T04:49:26.512Z,19.87
2018-06-08T04:50:26.506Z,19.88
2018-06-08T04:51:26.555Z,19.87
2018-06-08T04:52:26.218Z,19.91
2018-06-08T04:53:26.476Z,19.88
2018-06-08T04:54:26.463Z,19.95
2018-06-08T04:55:26.721Z,20.02
2018-06-08T04:56:26.181Z,19.9
2018-06-08T04:57:26.439Z,20.03
2018-06-08T04:58:26.425Z,20
2018-06-08T04:59:26.153Z,19.93
2018-06-08T05:00:26.405Z,19.98
2018-06-08T05:01:26.131Z,19.98
2018-06-08T05:02:26.172Z,19.97
2018-06-08T05:03:26.650Z,19.95
2018-06-08T05:04:26.360Z,20.02
2018-06-08T05:05:26.619Z,19.98
2018-06-08T05:06:26.350Z,19.97
2018-06-08T05:07:26.598Z,19.97
2018-06-08T05:08:26.320Z,19.91
2018-06-08T05:09:26.314Z,19.98
2018-06-08T05:10:26.582Z,20.09
2018-06-08T05:11:26.030Z,20.06
2018-06-08T05:12:26.550Z,20.15
2018-06-08T05:13:26.275Z,20.08
2018-06-08T05:14:26.000Z,20.08
2018-06-08T05:15:26.256Z,20.15
2018-06-08T05:16:26.514Z,20.08
2018-06-08T05:17:26.237Z,20.13
2018-06-08T05:18:26.487Z,20.2
2018-06-08T05:19:25.952Z,20.2
2018-06-08T05:20:26.208Z,20.23
2018-06-08T05:21:26.212Z,20.27
2018-06-08T05:22:26.457Z,20.28
2018-06-08T05:23:26.449Z,20.28
2018-06-08T05:24:26.167Z,20.28
2018-06-08T05:25:26.422Z,20.25
2018-06-08T05:26:25.883Z,20.27
2018-06-08T05:27:26.420Z,20.27
2018-06-08T05:28:26.130Z,20.28
2018-06-08T05:29:26.393Z,20.35
2018-06-08T05:30:25.847Z,20.46
2018-06-08T05:31:26.372Z,20.46
2018-06-08T05:32:26.367Z,20.42
2018-06-08T05:33:26.090Z,20.43
2018-06-08T05:34:26.342Z,20.42
2018-06-08T05:35:26.071Z,20.49
2018-06-08T05:36:26.055Z,20.5
2018-06-08T05:37:26.152Z,20.47
2018-06-08T05:38:26.043Z,20.53
2018-06-08T05:39:26.031Z,20.58
2018-06-08T05:40:25.756Z,20.56
2018-06-08T05:41:26.009Z,20.59
2018-06-08T05:42:25.997Z,20.64
2018-06-08T05:43:26.257Z,20.74
2018-06-08T05:44:25.716Z,20.66
2018-06-08T05:45:26.173Z,20.71
2018-06-08T05:46:25.968Z,20.8
2018-06-08T05:47:25.957Z,20.76
2018-06-08T05:48:26.066Z,20.8
2018-06-08T05:49:26.201Z,20.79
2018-06-08T05:50:25.942Z,20.79
2018-06-08T05:51:25.925Z,20.72
2018-06-08T05:52:25.924Z,20.65
2018-06-08T05:53:26.175Z,20.74
2018-06-08T05:54:25.895Z,20.84
2018-06-08T05:55:25.926Z,20.8
2018-06-08T05:56:25.873Z,20.8
2018-06-08T05:57:26.137Z,20.77
2018-06-08T05:58:25.860Z,20.83
2018-06-08T05:59:25.845Z,20.76
2018-06-08T06:00:26.105Z,20.69
2018-06-08T06:01:25.830Z,20.74
2018-06-08T06:02:26.087Z,20.81
2018-06-08T06:03:26.073Z,20.8
2018-06-08T06:04:25.543Z,20.81
2018-06-08T06:05:25.791Z,20.8
2018-06-08T06:06:25.787Z,20.8
2018-06-08T06:07:26.042Z,20.83
2018-06-08T06:08:25.766Z,20.86
2018-06-08T06:09:25.761Z,20.81
2018-06-08T06:10:26.020Z,20.81
2018-06-08T06:11:26.001Z,20.79
2018-06-08T06:12:25.728Z,20.84
2018-06-08T06:13:25.995Z,20.87
2018-06-08T06:14:25.712Z,20.89
2018-06-08T06:15:25.969Z,20.9
2018-06-08T06:16:25.435Z,20.81
2018-06-08T06:17:25.690Z,20.83
2018-06-08T06:18:25.944Z,20.84
2018-06-08T06:19:25.928Z,20.84
2018-06-08T06:20:25.664Z,20.81
2018-06-08T06:21:25.647Z,20.91
2018-06-08T06:22:25.908Z,20.9
2018-06-08T06:23:25.897Z,20.9
2018-06-08T06:24:25.884Z,20.91
2018-06-08T06:25:25.883Z,20.9
2018-06-08T06:26:25.606Z,20.84
2018-06-08T06:27:25.614Z,20.86
2018-06-08T06:28:25.589Z,20.84
2018-06-08T06:29:25.853Z,20.84
2018-06-08T06:30:25.832Z,20.87
2018-06-08T06:31:25.296Z,20.96
2018-06-08T06:32:25.620Z,20.93
2018-06-08T06:33:25.285Z,20.91
2018-06-08T06:34:25.537Z,20.95
2018-06-08T06:35:25.534Z,20.98
2018-06-08T06:36:25.519Z,20.95
2018-06-08T06:37:25.247Z,20.96
2018-06-08T06:38:25.240Z,20.96
2018-06-08T06:39:25.232Z,20.86
2018-06-08T06:40:25.481Z,20.89
2018-06-08T06:41:25.739Z,20.9
2018-06-08T06:42:25.205Z,20.91
2018-06-08T06:43:25.191Z,20.83
2018-06-08T06:44:25.721Z,20.86
2018-06-08T06:45:25.699Z,20.98
2018-06-08T06:46:25.437Z,20.91
2018-06-08T06:47:25.681Z,20.91
2018-06-08T06:48:25.881Z,20.95
2018-06-08T06:49:25.666Z,20.9
2018-06-08T06:50:25.656Z,20.98
2018-06-08T06:51:25.412Z,20.96
2018-06-08T06:52:25.385Z,21.04
2018-06-08T06:53:25.371Z,20.96
2018-06-08T06:54:25.624Z,21.02
2018-06-08T06:55:25.088Z,21.08
2018-06-08T06:56:25.333Z,21.09
2018-06-08T06:57:25.594Z,21.08
2018-06-08T06:58:25.317Z,21.08
2018-06-08T06:59:25.580Z,21.11
2018-06-08T07:00:25.575Z,21.05
2018-06-08T07:01:25.036Z,21.11
2018-06-08T07:02:25.292Z,21.2
2018-06-08T07:03:25.284Z,21.17
2018-06-08T07:04:25.017Z,21.23
2018-06-08T07:05:25.266Z,21.24
2018-06-08T07:06:24.989Z,21.23
2018-06-08T07:07:24.983Z,21.13
2018-06-08T07:08:25.501Z,21.14
2018-06-08T07:09:25.234Z,21.06
2018-06-08T07:10:25.221Z,21.04
2018-06-08T07:11:25.213Z,21.16
2018-06-08T07:12:25.470Z,21.11
2018-06-08T07:13:25.196Z,21.17
2018-06-08T07:14:25.456Z,21.08
2018-06-08T07:15:24.912Z,21.19
2018-06-08T07:16:25.171Z,21.23
2018-06-08T07:17:25.421Z,21.27
2018-06-08T07:18:25.149Z,21.32
2018-06-08T07:19:25.406Z,21.29
2018-06-08T07:20:25.141Z,21.29
2018-06-08T07:21:25.393Z,21.32
2018-06-08T07:22:25.383Z,21.34
2018-06-08T07:23:25.376Z,21.44
2018-06-08T07:24:25.100Z,21.39
2018-06-08T07:25:25.088Z,21.38
2018-06-08T07:26:24.816Z,21.5
2018-06-08T07:27:25.343Z,21.53
2018-06-08T07:28:25.333Z,21.54
2018-06-08T07:29:25.324Z,21.61
2018-06-08T07:30:25.051Z,21.57
2018-06-08T07:31:25.112Z,21.57
2018-06-08T07:32:25.295Z,21.63
2018-06-08T07:33:25.294Z,21.66
2018-06-08T07:34:24.755Z,21.74
2018-06-08T07:35:25.007Z,21.79
2018-06-08T07:36:25.264Z,21.91
2018-06-08T07:37:24.996Z,22.12
2018-06-08T07:38:25.247Z,22.27
2018-06-08T07:39:24.716Z,22.39
2018-06-08T07:40:25.512Z,22.6
2018-06-08T07:41:24.971Z,22.72
2018-06-08T07:42:24.962Z,22.82
2018-06-08T07:43:24.951Z,23.31
2018-06-08T07:44:24.938Z,23.47
2018-06-08T07:45:25.203Z,23.53
2018-06-08T07:46:24.927Z,23.72
2018-06-08T07:47:24.915Z,24.19
2018-06-08T07:48:24.649Z,24.38
2018-06-08T07:49:24.904Z,24.44
2018-06-08T07:50:24.897Z,24.44
2018-06-08T07:51:24.894Z,24.49
2018-06-08T07:52:24.889Z,24.42
2018-06-08T07:53:25.145Z,24.13
2018-06-08T07:54:25.139Z,24
2018-06-08T07:55:24.605Z,24.24
2018-06-08T07:56:24.863Z,24.16
2018-06-08T07:57:25.118Z,23.98
2018-06-08T07:58:25.118Z,23.79
2018-06-08T07:59:24.846Z,23.98
2018-06-08T08:00:24.574Z,23.94
2018-06-08T08:01:25.104Z,24.07
2018-06-08T08:02:24.832Z,24.37
2018-06-08T08:03:24.820Z,24.47
2018-06-08T08:04:24.816Z,24.67
2018-06-08T08:05:25.143Z,24.57
2018-06-08T08:06:25.076Z,24.59
2018-06-08T08:07:24.801Z,24.32
2018-06-08T08:08:24.796Z,24.04
2018-06-08T08:09:24.793Z,23.76
2018-06-08T08:10:24.783Z,23.55
2018-06-08T08:11:24.778Z,23.52
2018-06-08T08:12:25.037Z,23.46
2018-06-08T08:13:25.036Z,23.52
2018-06-08T08:14:25.038Z,23.43
2018-06-08T08:15:25.018Z,23.43
2018-06-08T08:16:25.014Z,23.42
2018-06-08T08:17:24.744Z,23.23
2018-06-08T08:18:25.002Z,23.26
2018-06-08T08:19:25.104Z,23.2
2018-06-08T08:20:24.993Z,23.12
2018-06-08T08:21:24.718Z,23.09
2018-06-08T08:22:24.974Z,23.07
2018-06-08T08:23:24.971Z,23.07
2018-06-08T08:24:24.431Z,23.02
2018-06-08T08:25:24.967Z,22.97
2018-06-08T08:26:24.693Z,23.01
2018-06-08T08:27:24.422Z,23.02
2018-06-08T08:28:24.675Z,22.99
2018-06-08T08:29:24.940Z,23.01
2018-06-08T08:30:24.661Z,23.01
2018-06-08T08:31:24.920Z,22.89
2018-06-08T08:32:24.915Z,22.89
2018-06-08T08:33:24.646Z,22.82
2018-06-08T08:34:24.640Z,22.82
2018-06-08T08:35:24.636Z,22.74
2018-06-08T08:36:24.629Z,22.72
2018-06-08T08:37:24.620Z,22.57
2018-06-08T08:38:24.614Z,22.65
2018-06-08T08:39:24.873Z,22.6
2018-06-08T08:40:25.066Z,22.6
2018-06-08T08:41:24.593Z,22.56
2018-06-08T08:42:24.863Z,22.53
2018-06-08T08:43:24.580Z,22.53
2018-06-08T08:44:24.310Z,22.53
2018-06-08T08:45:24.568Z,22.43
2018-06-08T08:46:24.565Z,22.47
2018-06-08T08:47:24.552Z,22.5
2018-06-08T08:48:24.744Z,22.5
2018-06-08T08:49:24.536Z,22.47
2018-06-08T08:50:24.799Z,22.49
2018-06-08T08:51:24.849Z,22.43
2018-06-08T08:52:24.790Z,22.38
2018-06-08T08:53:24.772Z,22.35
2018-06-08T08:54:24.501Z,22.47
2018-06-08T08:55:24.769Z,22.34
2018-06-08T08:56:24.496Z,22.46
2018-06-08T08:57:24.221Z,22.38
2018-06-08T08:58:24.478Z,22.31
2018-06-08T08:59:24.736Z,22.35
2018-06-08T09:00:24.723Z,22.49
2018-06-08T09:01:24.721Z,22.37
2018-06-08T09:02:24.183Z,22.41
2018-06-08T09:03:24.701Z,22.46
2018-06-08T09:04:24.432Z,22.47
2018-06-08T09:05:24.684Z,22.52
2018-06-08T09:06:24.677Z,22.46
2018-06-08T09:07:24.680Z,22.44
2018-06-08T09:08:24.404Z,22.53
2018-06-08T09:09:24.395Z,22.62
2018-06-08T09:10:24.121Z,22.62
2018-06-08T09:11:24.418Z,22.46
2018-06-08T09:12:24.639Z,22.5
2018-06-08T09:13:24.364Z,22.41
2018-06-08T09:14:24.095Z,22.46
2018-06-08T09:15:24.614Z,22.44
2018-06-08T09:16:24.610Z,22.49
2018-06-08T09:17:24.337Z,22.43
2018-06-08T09:18:24.329Z,22.52
2018-06-08T09:19:24.319Z,22.59
2018-06-08T09:20:24.586Z,22.47
2018-06-08T09:21:24.569Z,22.43
2018-06-08T09:22:24.565Z,22.39
2018-06-08T09:23:24.294Z,22.44
2018-06-08T09:24:24.286Z,22.39
2018-06-08T09:25:24.281Z,22.46
2018-06-08T09:26:24.004Z,22.49
2018-06-08T09:27:24.703Z,22.44
2018-06-08T09:28:24.523Z,22.53
2018-06-08T09:29:24.518Z,22.52
2018-06-08T09:30:24.512Z,22.57
2018-06-08T09:31:24.502Z,22.43
2018-06-08T09:32:24.230Z,22.41
2018-06-08T09:33:24.225Z,22.46
2018-06-08T09:34:24.476Z,22.47
2018-06-08T09:35:24.208Z,22.43
2018-06-08T09:36:24.462Z,22.49
2018-06-08T09:37:24.190Z,22.46
2018-06-08T09:38:23.929Z,22.5
2018-06-08T09:39:24.439Z,22.54
2018-06-08T09:40:23.911Z,22.47
2018-06-08T09:41:24.463Z,22.52
2018-06-08T09:42:24.426Z,22.47
2018-06-08T09:43:24.420Z,22.32
2018-06-08T09:44:24.253Z,22.32
2018-06-08T09:45:24.137Z,22.38
2018-06-08T09:46:24.494Z,22.39
2018-06-08T09:47:24.390Z,22.49
2018-06-08T09:48:24.313Z,22.41
2018-06-08T09:49:24.369Z,22.32
2018-06-08T09:50:24.373Z,22.38
2018-06-08T09:51:24.372Z,22.53
2018-06-08T09:52:24.345Z,22.57
2018-06-08T09:53:23.826Z,22.59
2018-06-08T09:54:24.351Z,22.53
2018-06-08T09:55:24.331Z,22.53
2018-06-08T09:56:24.059Z,22.37
2018-06-08T09:57:24.329Z,22.38
2018-06-08T09:58:23.796Z,22.28
2018-06-08T09:59:24.300Z,22.32
2018-06-08T10:00:24.300Z,22.32
2018-06-08T10:01:24.034Z,22.46
2018-06-08T10:02:24.012Z,22.41
2018-06-08T10:03:24.277Z,22.34
2018-06-08T10:04:24.266Z,22.49
2018-06-08T10:05:24.163Z,22.34
2018-06-08T10:06:23.988Z,22.34
2018-06-08T10:07:23.985Z,22.31
2018-06-08T10:08:24.241Z,22.38
2018-06-08T10:09:23.711Z,22.27
2018-06-08T10:10:23.961Z,22.22
2018-06-08T10:11:24.052Z,22.23
2018-06-08T10:12:24.210Z,22.2
2018-06-08T10:13:23.941Z,22.17
2018-06-08T10:14:24.223Z,22.12
2018-06-08T10:15:23.660Z,21.97
2018-06-08T10:16:23.920Z,22.02
2018-06-08T10:17:23.909Z,21.98
2018-06-08T10:18:23.900Z,21.95
2018-06-08T10:19:24.165Z,21.94
2018-06-08T10:20:23.885Z,21.83
2018-06-08T10:21:23.876Z,21.82
2018-06-08T10:22:23.610Z,21.88
2018-06-08T10:23:24.174Z,21.78
2018-06-08T10:24:24.120Z,21.64
2018-06-08T10:25:24.116Z,21.63
2018-06-08T10:26:23.838Z,21.5
2018-06-08T10:27:23.837Z,21.59
2018-06-08T10:28:24.292Z,21.5
2018-06-08T10:29:23.817Z,21.46
2018-06-08T10:30:24.110Z,21.39
2018-06-08T10:31:23.797Z,21.34
2018-06-08T10:32:24.059Z,21.29
2018-06-08T10:33:23.787Z,21.32
2018-06-08T10:34:23.779Z,21.27
2018-06-08T10:35:23.766Z,21.29
2018-06-08T10:36:23.765Z,21.2
2018-06-08T10:37:23.488Z,21.09
2018-06-08T10:38:23.747Z,21.08
2018-06-08T10:39:23.733Z,21.06
2018-06-08T10:40:23.996Z,21.04
2018-06-08T10:41:23.717Z,21.02
2018-06-08T10:42:23.969Z,21.04
2018-06-08T10:43:23.698Z,21.04
2018-06-08T10:44:23.961Z,21.06
2018-06-08T10:45:23.417Z,21.01
2018-06-08T10:46:23.408Z,20.93
2018-06-08T10:47:23.403Z,20.91
2018-06-08T10:48:24.069Z,20.9
2018-06-08T10:49:23.915Z,20.86
2018-06-08T10:50:23.700Z,20.84
2018-06-08T10:51:23.902Z,20.8
2018-06-08T10:52:23.886Z,20.79
2018-06-08T10:53:23.614Z,20.8
2018-06-08T10:54:23.874Z,20.65
2018-06-08T10:55:23.595Z,20.69
2018-06-08T10:56:23.597Z,20.71
2018-06-08T10:57:23.847Z,20.69
2018-06-08T10:58:23.568Z,20.69
2018-06-08T10:59:23.821Z,20.61
2018-06-08T11:00:23.819Z,20.62
2018-06-08T11:01:23.813Z,20.59
2018-06-08T11:02:23.272Z,20.56
2018-06-08T11:03:23.525Z,20.59
2018-06-08T11:04:23.775Z,20.53
2018-06-08T11:05:23.247Z,20.53
2018-06-08T11:06:23.760Z,20.49
2018-06-08T11:07:23.751Z,20.5
2018-06-08T11:08:23.483Z,20.51
2018-06-08T11:09:23.480Z,20.53
2018-06-08T11:10:23.725Z,20.51
2018-06-08T11:11:23.715Z,20.54
2018-06-08T11:12:23.707Z,20.5
2018-06-08T11:13:23.433Z,20.51
2018-06-08T11:14:23.432Z,20.54
2018-06-08T11:15:23.716Z,20.5
2018-06-08T11:16:23.147Z,20.42
2018-06-08T11:17:23.398Z,20.51
2018-06-08T11:18:23.124Z,20.46
2018-06-08T11:19:23.387Z,20.43
2018-06-08T11:20:23.411Z,20.47
2018-06-08T11:21:23.636Z,20.5
2018-06-08T11:22:23.353Z,20.49
2018-06-08T11:23:23.356Z,20.5
2018-06-08T11:24:23.338Z,20.54
2018-06-08T11:25:23.061Z,20.53
2018-06-08T11:26:23.325Z,20.53
2018-06-08T11:27:23.314Z,20.54
2018-06-08T11:28:23.562Z,20.54
2018-06-08T11:29:23.296Z,20.5
2018-06-08T11:30:23.547Z,20.51
2018-06-08T11:31:23.546Z,20.54
2018-06-08T11:32:23.259Z,20.58
2018-06-08T11:33:23.256Z,20.62
2018-06-08T11:34:23.242Z,20.58
2018-06-08T11:35:23.241Z,20.65
2018-06-08T11:36:23.227Z,20.66
2018-06-08T11:37:23.481Z,20.59
2018-06-08T11:38:23.211Z,20.58
2018-06-08T11:39:23.745Z,20.61
2018-06-08T11:40:22.934Z,20.59
2018-06-08T11:41:23.451Z,20.72
2018-06-08T11:42:23.440Z,20.66
2018-06-08T11:43:23.181Z,20.81
2018-06-08T11:44:23.416Z,20.83
2018-06-08T11:45:23.419Z,20.79
2018-06-08T11:46:23.402Z,20.91
2018-06-08T11:47:23.132Z,20.87
2018-06-08T11:48:23.123Z,20.93
2018-06-08T11:49:22.848Z,20.96
2018-06-08T11:50:22.838Z,20.95
2018-06-08T11:51:23.097Z,20.93
2018-06-08T11:52:23.353Z,20.98
2018-06-08T11:53:23.238Z,20.96
2018-06-08T11:54:23.327Z,20.96
2018-06-08T11:55:23.064Z,21.08
2018-06-08T11:56:23.324Z,21.08
2018-06-08T11:57:23.309Z,21.16
2018-06-08T11:58:23.037Z,21.09
2018-06-08T11:59:23.026Z,21.06
2018-06-08T12:00:23.086Z,21.08
2018-06-08T12:01:23.263Z,21.23
2018-06-08T12:02:23.004Z,21.27
2018-06-08T12:03:23.261Z,21.32
2018-06-08T12:04:23.252Z,21.32
2018-06-08T12:05:22.715Z,21.41
2018-06-08T12:06:23.279Z,21.38
2018-06-08T12:07:23.222Z,21.56
2018-06-08T12:08:23.225Z,21.53
2018-06-08T12:09:22.954Z,21.56
2018-06-08T12:10:22.933Z,21.56
2018-06-08T12:11:23.192Z,21.6
2018-06-08T12:12:23.188Z,21.63
2018-06-08T12:13:22.646Z,21.69
2018-06-08T12:14:23.169Z,21.64
2018-06-08T12:15:22.630Z,21.66
2018-06-08T12:16:23.149Z,21.71
2018-06-08T12:17:23.147Z,21.72
2018-06-08T12:18:22.871Z,21.63
2018-06-08T12:19:23.129Z,21.66
2018-06-08T12:20:22.852Z,21.67
2018-06-08T12:21:23.107Z,21.76
2018-06-08T12:22:23.102Z,21.75
2018-06-08T12:23:22.565Z,21.71
2018-06-08T12:24:23.094Z,21.82
2018-06-08T12:25:22.554Z,21.76
2018-06-08T12:26:23.076Z,21.76
2018-06-08T12:27:23.075Z,21.72
2018-06-08T12:28:22.802Z,21.78
2018-06-08T12:29:23.055Z,21.91
2018-06-08T12:30:23.040Z,21.83
2018-06-08T12:31:23.037Z,21.9
2018-06-08T12:32:22.770Z,21.9
2018-06-08T12:33:23.021Z,22.04
2018-06-08T12:34:23.015Z,22.27
2018-06-08T12:35:23.002Z,22.46
2018-06-08T12:36:22.469Z,22.69
2018-06-08T12:37:23.013Z,22.82
2018-06-08T12:38:22.719Z,22.92
2018-06-08T12:39:22.972Z,23.14
2018-06-08T12:40:22.715Z,23.26
2018-06-08T12:41:22.963Z,23.29
2018-06-08T12:42:22.692Z,23.52
2018-06-08T12:43:22.699Z,23.77
2018-06-08T12:44:22.942Z,24.07
2018-06-08T12:45:22.680Z,24.38
2018-06-08T12:46:22.937Z,24.32
2018-06-08T12:47:22.671Z,24.53
2018-06-08T12:48:23.327Z,24.63
2018-06-08T12:49:22.652Z,24.83
2018-06-08T12:50:22.646Z,24.95
2018-06-08T12:51:22.911Z,25.07
2018-06-08T12:52:22.648Z,25.37
2018-06-08T12:53:22.642Z,25.28
2018-06-08T12:54:22.631Z,25.17
2018-06-08T12:55:22.893Z,25.13
2018-06-08T12:56:22.629Z,24.8